Time;durP1;ratioP1;P1;durP2;ratioP2;P2;SDS_P1;SDS_P2;PMS_P1;PMS_P2;Temp;Humidity;BMP_temperature;BMP_pressure;BME280_temperature;BME280_humidity;BME280_pressure;Samples;Min_cycle;Max_cycle;Signal;HPM_P1;HPM_P2
2021/10/19 00:00:12;;;;;;;3.83;3.53;;;;;17.80;100886.00;;;;2078907;28;20205;-56
2021/10/19 00:01:12;;;;;;;3.30;3.10;;;;;17.80;100887.00;;;;2079134;28;20210;-55
2021/10/19 00:02:12;;;;;;;3.70;3.40;;;;;17.80;100887.00;;;;2085628;28;20247;-56
2021/10/19 00:03:13;;;;;;;3.37;3.17;;;;;17.80;100890.00;;;;2087145;28;20225;-56
2021/10/19 00:04:13;;;;;;;3.90;3.60;;;;;17.80;100888.00;;;;2083174;28;20213;-56
2021/10/19 00:05:14;;;;;;;3.80;3.50;;;;;17.80;100878.00;;;;2079023;28;20220;-56
2021/10/19 00:06:15;;;;;;;4.20;3.80;;;;;17.80;100872.00;;;;2079023;28;20280;-55
2021/10/19 00:07:15;;;;;;;3.43;3.13;;;;;17.80;100870.00;;;;2079012;28;20213;-55
2021/10/19 00:08:15;;;;;;;4.00;3.70;;;;;17.80;100866.00;;;;2078862;28;20225;-54
2021/10/19 00:09:16;;;;;;;4.10;3.80;;;;;17.80;100871.00;;;;2078447;28;20236;-54
2021/10/19 00:10:16;;;;;;;3.83;3.53;;;;;17.80;100870.00;;;;2078979;28;20222;-55
2021/10/19 00:11:16;;;;;;;3.80;3.60;;;;;17.80;100880.00;;;;2078888;28;20224;-54
2021/10/19 00:12:17;;;;;;;3.93;3.63;;;;;17.80;100872.00;;;;2078816;28;20216;-55
2021/10/19 00:13:17;;;;;;;3.70;3.40;;;;;17.80;100865.00;;;;2078738;28;20230;-54
2021/10/19 00:14:18;;;;;;;3.93;3.63;;;;;17.80;100859.00;;;;2078132;28;20222;-54
2021/10/19 00:15:18;;;;;;;3.53;3.23;;;;;17.80;100858.00;;;;2078652;28;20671;-55
2021/10/19 00:16:19;;;;;;;3.70;3.40;;;;;17.80;100866.00;;;;2079409;28;20309;-55
2021/10/19 00:17:19;;;;;;;3.60;3.30;;;;;17.80;100868.00;;;;2078992;28;20448;-55
2021/10/19 00:18:20;;;;;;;3.27;3.07;;;;;17.80;100870.00;;;;2082575;28;20217;-55
2021/10/19 00:19:20;;;;;;;3.90;3.60;;;;;17.80;100864.00;;;;2079637;28;20260;-54
2021/10/19 00:20:20;;;;;;;4.00;3.70;;;;;17.80;100868.00;;;;2080227;28;20216;-57
2021/10/19 00:21:21;;;;;;;3.67;3.37;;;;;17.80;100866.00;;;;2084170;28;20205;-56
2021/10/19 00:22:21;;;;;;;3.23;3.03;;;;;17.80;100865.00;;;;2088453;28;20220;-55
2021/10/19 00:23:21;;;;;;;3.33;3.13;;;;;17.80;100859.00;;;;2088596;28;20213;-56
2021/10/19 00:24:22;;;;;;;3.90;3.60;;;;;17.70;100866.00;;;;2088796;28;20583;-55
2021/10/19 00:25:22;;;;;;;3.87;3.47;;;;;17.80;100858.00;;;;2088587;28;20560;-55
2021/10/19 00:26:22;;;;;;;3.23;3.03;;;;;17.70;100858.00;;;;2088575;28;20742;-55
2021/10/19 00:27:23;;;;;;;3.67;3.37;;;;;17.70;100855.00;;;;2088320;28;20706;-55
2021/10/19 00:28:23;;;;;;;3.90;3.60;;;;;17.80;100851.00;;;;2088412;28;20205;-56
2021/10/19 00:29:23;;;;;;;3.50;3.20;;;;;17.80;100849.00;;;;2088144;28;20208;-54
2021/10/19 00:30:24;;;;;;;3.90;3.60;;;;;17.80;100848.00;;;;2086441;28;20217;-53
2021/10/19 00:31:24;;;;;;;3.90;3.60;;;;;17.80;100844.00;;;;2088570;28;20674;-54
2021/10/19 00:32:24;;;;;;;3.50;3.20;;;;;17.80;100849.00;;;;2083969;28;20221;-54
2021/10/19 00:33:25;;;;;;;3.73;3.43;;;;;17.80;100849.00;;;;2084838;28;20251;-54
2021/10/19 00:34:25;;;;;;;3.47;3.27;;;;;17.80;100848.00;;;;2082635;28;20213;-53
2021/10/19 00:35:27;;;;;;;4.33;3.93;;;;;17.80;100847.00;;;;2086520;28;20213;-53
2021/10/19 00:36:27;;;;;;;4.00;3.70;;;;;17.80;100848.00;;;;2088076;28;20322;-55
2021/10/19 00:37:28;;;;;;;3.57;3.27;;;;;17.70;100843.00;;;;2081503;28;20214;-55
2021/10/19 00:38:28;;;;;;;3.30;3.07;;;;;17.80;100845.00;;;;2079680;28;20225;-53
2021/10/19 00:39:28;;;;;;;3.37;3.07;;;;;17.70;100848.00;;;;2083387;28;20225;-54
2021/10/19 00:40:31;;;;;;;3.30;3.10;;;;;17.70;100849.00;;;;2084760;28;20307;-55
2021/10/19 00:41:31;;;;;;;3.70;3.45;;;;;17.70;100846.00;;;;2083269;28;20569;-54
2021/10/19 00:42:33;;;;;;;3.90;3.60;;;;;17.70;100839.00;;;;2081734;28;20224;-54
2021/10/19 00:43:34;;;;;;;4.10;3.70;;;;;17.70;100844.00;;;;2086100;28;20216;-54
2021/10/19 00:44:34;;;;;;;3.83;3.53;;;;;17.70;100844.00;;;;2080460;28;20694;-54
2021/10/19 00:45:34;;;;;;;4.07;3.77;;;;;17.80;100846.00;;;;2080330;28;20702;-54
2021/10/19 00:46:35;;;;;;;3.93;3.63;;;;;17.70;100837.00;;;;2080684;28;20205;-53
2021/10/19 00:47:35;;;;;;;3.30;3.10;;;;;17.70;100845.00;;;;2080331;28;20217;-54
2021/10/19 00:48:38;;;;;;;3.57;3.27;;;;;17.70;100838.00;;;;2084526;28;20300;-54
2021/10/19 00:49:38;;;;;;;3.45;3.20;;;;;17.70;100839.00;;;;2088331;28;20212;-54
2021/10/19 00:50:39;;;;;;;3.87;3.57;;;;;17.70;100834.00;;;;2086809;28;20208;-54
2021/10/19 00:51:39;;;;;;;3.93;3.63;;;;;17.70;100836.00;;;;2082348;28;20216;-54
2021/10/19 00:52:39;;;;;;;3.40;3.20;;;;;17.70;100844.00;;;;2087234;28;20202;-54
2021/10/19 00:53:40;;;;;;;4.27;3.97;;;;;17.70;100846.00;;;;2084606;28;20259;-54
2021/10/19 00:54:41;;;;;;;3.60;3.30;;;;;17.80;100843.00;;;;2075451;28;20209;-54
2021/10/19 00:55:41;;;;;;;3.87;3.57;;;;;17.70;100843.00;;;;2079453;28;20695;-54
2021/10/19 00:56:41;;;;;;;3.27;3.07;;;;;17.70;100848.00;;;;2079368;28;20289;-54
2021/10/19 00:57:42;;;;;;;3.63;3.33;;;;;17.70;100849.00;;;;2076471;28;20702;-54
2021/10/19 00:58:43;;;;;;;3.70;3.40;;;;;17.60;100854.00;;;;2084102;28;20735;-54
2021/10/19 00:59:44;;;;;;;3.60;3.37;;;;;17.70;100852.00;;;;2087823;28;20262;-54
2021/10/19 01:00:44;;;;;;;3.63;3.33;;;;;17.70;100848.00;;;;2087978;28;20299;-54
2021/10/19 01:01:44;;;;;;;3.47;3.23;;;;;17.70;100849.00;;;;2084249;28;20459;-54
2021/10/19 01:02:46;;;;;;;3.67;3.43;;;;;17.70;100847.00;;;;2083823;28;20230;-54
2021/10/19 01:03:46;;;;;;;4.07;3.78;;;;;17.70;100849.00;;;;2079386;28;20705;-55
2021/10/19 01:04:47;;;;;;;4.00;3.70;;;;;17.70;100850.00;;;;2081723;28;20225;-54
2021/10/19 01:05:47;;;;;;;3.93;3.63;;;;;17.70;100858.00;;;;2082855;28;20221;-54
2021/10/19 01:06:47;;;;;;;3.53;3.33;;;;;17.80;100851.00;;;;2083870;28;20291;-54
2021/10/19 01:07:48;;;;;;;3.73;3.43;;;;;17.80;100844.00;;;;2079609;28;20210;-54
2021/10/19 01:08:48;;;;;;;3.70;3.40;;;;;17.80;100844.00;;;;2079021;28;20241;-54
2021/10/19 01:09:49;;;;;;;3.73;3.43;;;;;17.80;100850.00;;;;2073869;28;20232;-55
2021/10/19 01:10:49;;;;;;;3.50;3.20;;;;;17.80;100837.00;;;;2072020;28;20310;-54
2021/10/19 01:11:49;;;;;;;3.77;3.47;;;;;17.80;100835.00;;;;2078830;28;20225;-54
2021/10/19 01:12:50;;;;;;;3.60;3.30;;;;;17.80;100836.00;;;;2079458;28;20260;-54
2021/10/19 01:13:50;;;;;;;3.90;3.60;;;;;17.80;100846.00;;;;2086844;28;20216;-54
2021/10/19 01:14:50;;;;;;;4.07;3.77;;;;;17.80;100838.00;;;;2080365;28;20220;-54
2021/10/19 01:15:51;;;;;;;3.67;3.37;;;;;17.80;100838.00;;;;2082656;28;20321;-54
2021/10/19 01:16:51;;;;;;;3.20;3.00;;;;;17.70;100847.00;;;;2076544;28;20252;-54
2021/10/19 01:17:51;;;;;;;4.07;3.77;;;;;17.80;100834.00;;;;2074747;28;20209;-54
2021/10/19 01:18:52;;;;;;;3.90;3.60;;;;;17.80;100824.00;;;;2082031;28;20208;-54
2021/10/19 01:19:52;;;;;;;3.73;3.43;;;;;17.80;100828.00;;;;2087603;28;24994;-54
2021/10/19 01:20:52;;;;;;;3.80;3.50;;;;;17.80;100820.00;;;;2079579;28;20312;-54
2021/10/19 01:21:55;;;;;;;3.20;2.97;;;;;17.80;100828.00;;;;2079790;28;20217;-53
2021/10/19 01:22:56;;;;;;;3.55;3.25;;;;;17.80;100831.00;;;;2086605;28;20228;-53
2021/10/19 01:23:57;;;;;;;3.30;3.10;;;;;17.80;100819.00;;;;2079449;28;20217;-54
2021/10/19 01:24:57;;;;;;;3.80;3.50;;;;;17.80;100826.00;;;;2085582;28;20228;-54
2021/10/19 01:25:57;;;;;;;3.90;3.60;;;;;17.80;100824.00;;;;2087462;28;20348;-54
2021/10/19 01:26:58;;;;;;;3.60;3.30;;;;;17.80;100829.00;;;;2082034;28;20282;-54
2021/10/19 01:28:02;;;;;;;3.87;3.57;;;;;17.80;100835.00;;;;2083132;28;20260;-54
2021/10/19 01:29:03;;;;;;;3.70;3.42;;;;;17.80;100835.00;;;;2079954;28;20259;-54
2021/10/19 01:30:03;;;;;;;3.67;3.37;;;;;17.80;100835.00;;;;2079720;28;20213;-54
2021/10/19 01:31:05;;;;;;;3.87;3.57;;;;;17.80;100835.00;;;;2079264;28;20225;-54
2021/10/19 01:32:06;;;;;;;3.55;3.25;;;;;17.80;100827.00;;;;2082125;28;20214;-55
2021/10/19 01:33:06;;;;;;;3.60;3.30;;;;;17.80;100831.00;;;;2081519;28;20271;-54
2021/10/19 01:34:06;;;;;;;3.67;3.37;;;;;17.80;100832.00;;;;2083220;28;20300;-53
2021/10/19 01:35:07;;;;;;;3.73;3.43;;;;;17.80;100832.00;;;;2084802;28;20236;-54
2021/10/19 01:36:08;;;;;;;3.70;3.40;;;;;17.80;100834.00;;;;2080231;28;20222;-54
2021/10/19 01:37:09;;;;;;;3.90;3.60;;;;;17.80;100836.00;;;;2085898;28;20440;-54
2021/10/19 01:38:11;;;;;;;3.33;3.13;;;;;17.80;100829.00;;;;2080546;28;20209;-54
2021/10/19 01:39:12;;;;;;;3.63;3.33;;;;;17.80;100827.00;;;;2085883;28;20209;-54
2021/10/19 01:40:14;;;;;;;4.13;3.83;;;;;17.80;100828.00;;;;2086388;28;20580;-53
2021/10/19 01:41:14;;;;;;;3.60;3.33;;;;;17.80;100826.00;;;;2088036;28;20204;-53
2021/10/19 01:42:14;;;;;;;3.37;3.17;;;;;17.50;100828.00;;;;2087800;28;20212;-53
2021/10/19 01:43:17;;;;;;;3.57;3.30;;;;;17.80;100825.00;;;;2087665;28;20216;-54
2021/10/19 01:44:18;;;;;;;4.05;3.75;;;;;17.80;100837.00;;;;2086492;28;20248;-53
2021/10/19 01:45:18;;;;;;;3.60;3.30;;;;;17.80;100827.00;;;;2079359;28;20217;-53
2021/10/19 01:46:18;;;;;;;3.50;3.30;;;;;17.80;100832.00;;;;2079809;28;20713;-54
2021/10/19 01:47:19;;;;;;;3.33;3.03;;;;;17.80;100823.00;;;;2083153;28;20221;-53
2021/10/19 01:48:19;;;;;;;3.80;3.50;;;;;17.80;100820.00;;;;2082437;28;20221;-53
2021/10/19 01:49:19;;;;;;;3.30;3.10;;;;;17.80;100825.00;;;;2083146;28;20213;-53
2021/10/19 01:50:20;;;;;;;3.60;3.30;;;;;17.80;100827.00;;;;2079443;28;20687;-54
2021/10/19 01:51:20;;;;;;;3.70;3.40;;;;;17.80;100821.00;;;;2083292;28;20235;-53
2021/10/19 01:52:20;;;;;;;3.77;3.47;;;;;17.80;100833.00;;;;2087387;28;20220;-54
2021/10/19 01:53:21;;;;;;;3.90;3.60;;;;;17.80;100826.00;;;;2087768;28;20216;-54
2021/10/19 01:54:21;;;;;;;3.67;3.37;;;;;17.80;100828.00;;;;2086202;28;20240;-54
2021/10/19 01:55:22;;;;;;;3.10;2.90;;;;;17.80;100832.00;;;;2079285;28;20221;-54
2021/10/19 01:56:22;;;;;;;3.23;3.03;;;;;17.80;100826.00;;;;2079566;28;20711;-53
2021/10/19 01:57:23;;;;;;;3.60;3.30;;;;;17.80;100829.00;;;;2079433;28;20585;-53
2021/10/19 01:58:24;;;;;;;3.80;3.50;;;;;17.80;100821.00;;;;2086482;28;20223;-54
2021/10/19 01:59:25;;;;;;;3.15;2.90;;;;;17.80;100832.00;;;;2083286;28;20691;-54
2021/10/19 02:00:25;;;;;;;3.93;3.63;;;;;17.80;100818.00;;;;2078470;28;20220;-54
2021/10/19 02:01:25;;;;;;;4.20;3.90;;;;;17.80;100824.00;;;;2079366;28;20216;-54
2021/10/19 02:02:26;;;;;;;3.60;3.30;;;;;17.80;100820.00;;;;2079334;28;20209;-54
2021/10/19 02:03:26;;;;;;;3.87;3.57;;;;;17.80;100820.00;;;;2079149;28;20296;-54
2021/10/19 02:04:27;;;;;;;3.80;3.50;;;;;17.80;100817.00;;;;2083396;28;20296;-54
2021/10/19 02:05:27;;;;;;;3.90;3.60;;;;;17.80;100821.00;;;;2079344;28;20213;-54
2021/10/19 02:06:27;;;;;;;3.43;3.17;;;;;17.80;100821.00;;;;2079390;28;20209;-54
2021/10/19 02:07:27;;;;;;;3.80;3.50;;;;;17.80;100815.00;;;;2083050;28;20548;-54
2021/10/19 02:08:28;;;;;;;3.60;3.30;;;;;17.70;100811.00;;;;2087079;28;20216;-54
2021/10/19 02:09:28;;;;;;;3.50;3.20;;;;;17.70;100812.00;;;;2079481;28;20290;-54
2021/10/19 02:10:32;;;;;;;3.53;3.23;;;;;17.80;100812.00;;;;2086623;28;20208;-54
2021/10/19 02:11:33;;;;;;;3.00;2.80;;;;;17.80;100815.00;;;;2083098;28;20289;-53
2021/10/19 02:12:34;;;;;;;4.10;3.80;;;;;17.80;100809.00;;;;2083355;28;20736;-54
2021/10/19 02:13:34;;;;;;;3.65;3.35;;;;;17.80;100810.00;;;;2079392;28;20275;-54
2021/10/19 02:14:34;;;;;;;3.90;3.60;;;;;17.80;100803.00;;;;2081729;28;20209;-53
2021/10/19 02:15:35;;;;;;;3.97;3.67;;;;;17.80;100803.00;;;;2082076;28;20709;-53
2021/10/19 02:16:35;;;;;;;3.97;3.67;;;;;17.70;100800.00;;;;2079450;28;20584;-53
2021/10/19 02:17:36;;;;;;;3.80;3.50;;;;;17.80;100805.00;;;;2083612;28;20218;-54
2021/10/19 02:18:36;;;;;;;3.97;3.67;;;;;17.70;100822.00;;;;2081419;28;20217;-54
2021/10/19 02:19:36;;;;;;;4.00;3.70;;;;;17.70;100809.00;;;;2082373;28;20209;-53
2021/10/19 02:20:37;;;;;;;3.63;3.33;;;;;17.70;100810.00;;;;2081218;28;20686;-54
2021/10/19 02:21:37;;;;;;;3.57;3.37;;;;;17.80;100809.00;;;;2087545;28;20653;-54
2021/10/19 02:22:38;;;;;;;3.73;3.43;;;;;17.80;100812.00;;;;2087126;28;20225;-54
2021/10/19 02:23:38;;;;;;;3.20;3.00;;;;;17.70;100813.00;;;;2087385;28;20579;-54
2021/10/19 02:24:38;;;;;;;3.30;3.10;;;;;17.80;100815.00;;;;2083473;28;20217;-54
2021/10/19 02:25:39;;;;;;;3.60;3.30;;;;;17.80;100815.00;;;;2087898;28;20209;-54
2021/10/19 02:26:39;;;;;;;3.77;3.47;;;;;17.80;100818.00;;;;2087693;28;20205;-54
2021/10/19 02:27:39;;;;;;;3.30;3.00;;;;;17.80;100816.00;;;;2087851;28;20228;-54
2021/10/19 02:28:40;;;;;;;4.13;3.83;;;;;17.80;100812.00;;;;2087092;28;20231;-54
2021/10/19 02:29:40;;;;;;;3.40;3.13;;;;;17.80;100812.00;;;;2085249;28;20224;-54
2021/10/19 02:30:41;;;;;;;3.50;3.23;;;;;17.80;100809.00;;;;2079667;28;20596;-54
2021/10/19 02:31:41;;;;;;;3.30;3.00;;;;;17.80;100808.00;;;;2079493;28;20214;-54
2021/10/19 02:32:43;;;;;;;3.20;3.00;;;;;17.80;100805.00;;;;2083026;28;20295;-54
2021/10/19 02:33:43;;;;;;;3.75;3.45;;;;;17.80;100804.00;;;;2083598;28;20215;-56
2021/10/19 02:34:44;;;;;;;3.50;3.20;;;;;17.80;100809.00;;;;2096057;28;20227;-57
2021/10/19 02:35:45;;;;;;;3.53;3.22;;;;;17.70;100803.00;;;;2094729;28;20748;-56
2021/10/19 02:36:45;;;;;;;3.80;3.50;;;;;17.80;100815.00;;;;2087778;28;20209;-56
2021/10/19 02:37:45;;;;;;;3.70;3.40;;;;;17.80;100805.00;;;;2087798;28;20201;-54
2021/10/19 02:38:46;;;;;;;3.53;3.30;;;;;17.80;100803.00;;;;2086800;28;20902;-55
2021/10/19 02:39:46;;;;;;;3.70;3.40;;;;;17.80;100797.00;;;;2087078;28;20304;-54
2021/10/19 02:40:46;;;;;;;3.23;3.03;;;;;17.80;100801.00;;;;2087455;28;20213;-55
2021/10/19 02:41:47;;;;;;;3.73;3.43;;;;;17.80;100794.00;;;;2087438;28;20212;-54
2021/10/19 02:42:47;;;;;;;3.70;3.40;;;;;17.80;100791.00;;;;2087537;28;20940;-55
2021/10/19 02:43:47;;;;;;;3.23;3.03;;;;;17.80;100796.00;;;;2087560;28;20208;-54
2021/10/19 02:44:48;;;;;;;3.77;3.47;;;;;17.80;100790.00;;;;2082998;28;20331;-54
2021/10/19 02:45:49;;;;;;;3.40;3.10;;;;;17.80;100791.00;;;;2101456;28;20253;-54
2021/10/19 02:46:49;;;;;;;3.43;3.23;;;;;17.80;100795.00;;;;2088578;28;20274;-54
2021/10/19 02:47:49;;;;;;;3.60;3.30;;;;;17.80;100803.00;;;;2090685;28;20538;-54
2021/10/19 02:48:50;;;;;;;3.73;3.43;;;;;17.80;100795.00;;;;2087775;28;20205;-56
2021/10/19 02:49:50;;;;;;;3.57;3.27;;;;;17.80;100797.00;;;;2087579;28;20395;-55
2021/10/19 02:50:50;;;;;;;3.17;2.93;;;;;17.80;100791.00;;;;2087486;28;20303;-55
2021/10/19 02:51:51;;;;;;;3.70;3.40;;;;;17.80;100793.00;;;;2086832;28;20216;-54
2021/10/19 02:52:51;;;;;;;3.50;3.30;;;;;17.80;100793.00;;;;2086891;28;20217;-54
2021/10/19 02:53:52;;;;;;;3.40;3.10;;;;;17.80;100796.00;;;;2087445;28;20217;-54
2021/10/19 02:54:52;;;;;;;3.60;3.30;;;;;17.80;100800.00;;;;2087003;28;20213;-54
2021/10/19 02:55:53;;;;;;;3.50;3.30;;;;;17.80;100797.00;;;;2089260;28;20204;-54
2021/10/19 02:56:53;;;;;;;3.57;3.27;;;;;17.80;100797.00;;;;2095617;28;20273;-54
2021/10/19 02:57:53;;;;;;;3.87;3.57;;;;;17.80;100797.00;;;;2095785;28;20208;-54
2021/10/19 02:58:54;;;;;;;3.40;3.10;;;;;17.80;100797.00;;;;2095194;28;20673;-55
2021/10/19 02:59:54;;;;;;;3.30;3.10;;;;;17.80;100792.00;;;;2091584;28;20213;-55
2021/10/19 03:00:54;;;;;;;3.40;3.10;;;;;17.80;100796.00;;;;2087652;28;20202;-54
2021/10/19 03:01:55;;;;;;;3.70;3.40;;;;;17.80;100797.00;;;;2087131;28;20209;-54
2021/10/19 03:02:56;;;;;;;3.90;3.60;;;;;17.80;100791.00;;;;2087463;28;20299;-54
2021/10/19 03:03:56;;;;;;;3.30;3.10;;;;;17.80;100790.00;;;;2087323;28;20296;-56
2021/10/19 03:04:57;;;;;;;3.90;3.60;;;;;17.80;100786.00;;;;2087691;28;20981;-54
2021/10/19 03:05:57;;;;;;;3.67;3.37;;;;;17.80;100782.00;;;;2087609;28;20262;-55
2021/10/19 03:06:58;;;;;;;3.33;3.10;;;;;17.80;100782.00;;;;2094807;28;20712;-54
2021/10/19 03:07:58;;;;;;;4.13;3.83;;;;;17.80;100785.00;;;;2095705;28;20314;-54
2021/10/19 03:08:58;;;;;;;3.80;3.50;;;;;17.80;100782.00;;;;2095337;28;20224;-54
2021/10/19 03:09:59;;;;;;;3.67;3.37;;;;;17.80;100781.00;;;;2095716;28;20283;-54
2021/10/19 03:10:59;;;;;;;3.70;3.40;;;;;17.80;100781.00;;;;2095729;28;20661;-55
2021/10/19 03:11:59;;;;;;;3.50;3.20;;;;;17.80;100785.00;;;;2095775;28;20208;-55
2021/10/19 03:13:00;;;;;;;3.70;3.40;;;;;17.80;100777.00;;;;2095584;28;20732;-54
2021/10/19 03:14:00;;;;;;;3.10;2.90;;;;;17.80;100778.00;;;;2094533;28;20208;-54
2021/10/19 03:15:00;;;;;;;3.80;3.50;;;;;17.80;100775.00;;;;2094349;28;20216;-55
2021/10/19 03:16:01;;;;;;;3.80;3.50;;;;;17.80;100780.00;;;;2094528;28;20208;-55
2021/10/19 03:17:01;;;;;;;3.83;3.53;;;;;17.80;100773.00;;;;2090230;28;20712;-54
2021/10/19 03:18:01;;;;;;;3.60;3.30;;;;;17.80;100776.00;;;;2090248;28;20586;-54
2021/10/19 03:19:03;;;;;;;3.67;3.37;;;;;17.80;100775.00;;;;2086971;28;20605;-54
2021/10/19 03:20:04;;;;;;;3.42;3.22;;;;;17.80;100769.00;;;;2087397;28;20344;-55
2021/10/19 03:21:05;;;;;;;3.15;2.95;;;;;17.80;100772.00;;;;2087535;28;20212;-54
2021/10/19 03:22:05;;;;;;;3.33;3.10;;;;;17.80;100769.00;;;;2087417;28;20217;-54
2021/10/19 03:23:05;;;;;;;3.80;3.50;;;;;17.80;100777.00;;;;2087067;28;20452;-54
2021/10/19 03:24:06;;;;;;;4.07;3.77;;;;;17.80;100769.00;;;;2087210;28;20303;-54
2021/10/19 03:25:07;;;;;;;3.70;3.40;;;;;17.80;100767.00;;;;2087317;28;20205;-54
2021/10/19 03:26:07;;;;;;;3.50;3.20;;;;;17.80;100769.00;;;;2087382;28;20217;-54
2021/10/19 03:27:07;;;;;;;3.77;3.47;;;;;17.80;100777.00;;;;2087394;28;20670;-54
2021/10/19 03:28:08;;;;;;;3.70;3.40;;;;;17.80;100772.00;;;;2087390;28;20546;-55
2021/10/19 03:29:08;;;;;;;3.60;3.40;;;;;17.80;100771.00;;;;2086786;28;20220;-55
2021/10/19 03:30:09;;;;;;;3.53;3.23;;;;;17.80;100775.00;;;;2087441;28;20267;-55
2021/10/19 03:31:09;;;;;;;3.43;3.23;;;;;17.80;100778.00;;;;2087512;28;20244;-53
2021/10/19 03:32:09;;;;;;;3.70;3.40;;;;;17.80;100775.00;;;;2086404;28;20451;-54
2021/10/19 03:33:10;;;;;;;3.87;3.57;;;;;17.80;100777.00;;;;2087234;28;20831;-54
2021/10/19 03:34:10;;;;;;;3.90;3.60;;;;;17.80;100775.00;;;;2087153;28;20216;-53
2021/10/19 03:35:11;;;;;;;3.10;2.90;;;;;17.80;100776.00;;;;2087242;28;20221;-54
2021/10/19 03:36:11;;;;;;;3.50;3.20;;;;;17.80;100770.00;;;;2087448;28;20213;-54
2021/10/19 03:37:11;;;;;;;3.90;3.60;;;;;17.80;100777.00;;;;2087218;28;20224;-54
2021/10/19 03:38:12;;;;;;;3.50;3.30;;;;;17.80;100782.00;;;;2087312;28;20216;-54
2021/10/19 03:39:12;;;;;;;3.63;3.33;;;;;17.80;100774.00;;;;2086470;28;20213;-54
2021/10/19 03:40:12;;;;;;;3.43;3.13;;;;;17.80;100780.00;;;;2087403;28;20217;-55
2021/10/19 03:41:13;;;;;;;3.90;3.60;;;;;17.80;100769.00;;;;2087277;28;20690;-54
2021/10/19 03:42:13;;;;;;;3.70;3.40;;;;;17.80;100776.00;;;;2087153;28;20251;-55
2021/10/19 03:43:13;;;;;;;3.80;3.50;;;;;17.80;100769.00;;;;2087017;28;20228;-54
2021/10/19 03:44:14;;;;;;;3.27;3.07;;;;;17.80;100768.00;;;;2087908;28;20216;-54
2021/10/19 03:45:15;;;;;;;3.63;3.33;;;;;17.80;100758.00;;;;2095481;28;20279;-54
2021/10/19 03:46:15;;;;;;;3.00;2.80;;;;;17.80;100769.00;;;;2092565;28;20677;-54
2021/10/19 03:47:16;;;;;;;3.50;3.20;;;;;17.70;100768.00;;;;2090423;28;20268;-54
2021/10/19 03:48:16;;;;;;;3.70;3.40;;;;;17.70;100768.00;;;;2090026;28;20220;-54
2021/10/19 03:49:16;;;;;;;3.20;3.00;;;;;17.70;100764.00;;;;2086765;28;20694;-54
2021/10/19 03:50:17;;;;;;;3.90;3.60;;;;;17.70;100767.00;;;;2086997;28;20297;-54
2021/10/19 03:51:17;;;;;;;3.93;3.63;;;;;17.70;100752.00;;;;2087156;28;20216;-54
2021/10/19 03:52:18;;;;;;;3.60;3.30;;;;;17.70;100759.00;;;;2091703;28;20209;-54
2021/10/19 03:53:18;;;;;;;3.20;3.00;;;;;17.70;100760.00;;;;2095579;28;20560;-54
2021/10/19 03:54:18;;;;;;;3.57;3.30;;;;;17.70;100757.00;;;;2093395;28;20578;-54
2021/10/19 03:55:19;;;;;;;3.90;3.60;;;;;17.70;100754.00;;;;2097133;28;20216;-54
2021/10/19 03:56:19;;;;;;;3.30;3.10;;;;;17.80;100758.00;;;;2097174;28;20242;-54
2021/10/19 03:57:19;;;;;;;4.03;3.73;;;;;17.80;100743.00;;;;2092541;28;20226;-54
2021/10/19 03:58:20;;;;;;;3.40;3.20;;;;;17.80;100755.00;;;;2097317;28;20302;-54
2021/10/19 03:59:20;;;;;;;3.63;3.43;;;;;17.80;100754.00;;;;2095707;28;20220;-54
2021/10/19 04:00:20;;;;;;;3.57;3.27;;;;;17.80;100752.00;;;;2097132;28;20716;-54
2021/10/19 04:01:21;;;;;;;3.10;2.90;;;;;17.70;100752.00;;;;2097055;28;20768;-54
2021/10/19 04:02:21;;;;;;;3.77;3.47;;;;;17.80;100757.00;;;;2096894;28;20216;-54
2021/10/19 04:03:22;;;;;;;3.50;3.30;;;;;17.80;100750.00;;;;2097096;28;20577;-54
2021/10/19 04:04:23;;;;;;;3.87;3.57;;;;;17.80;100749.00;;;;2096925;28;20220;-53
2021/10/19 04:05:23;;;;;;;4.13;3.80;;;;;17.80;100751.00;;;;2090799;28;20755;-54
2021/10/19 04:06:23;;;;;;;4.20;3.80;;;;;17.80;100747.00;;;;2088691;28;20573;-54
2021/10/19 04:07:24;;;;;;;3.80;3.50;;;;;17.80;100743.00;;;;2088914;28;20216;-54
2021/10/19 04:08:24;;;;;;;3.30;3.10;;;;;17.80;100742.00;;;;2088849;28;20224;-55
2021/10/19 04:09:24;;;;;;;3.73;3.53;;;;;17.80;100742.00;;;;2088164;28;20803;-54
2021/10/19 04:10:25;;;;;;;3.50;3.20;;;;;17.80;100742.00;;;;2088568;28;20670;-54
2021/10/19 04:11:25;;;;;;;3.30;3.00;;;;;17.80;100739.00;;;;2088308;28;20701;-53
2021/10/19 04:12:25;;;;;;;3.70;3.50;;;;;17.80;100740.00;;;;2088734;28;20319;-54
2021/10/19 04:13:26;;;;;;;3.20;2.97;;;;;17.80;100735.00;;;;2088795;28;20220;-54
2021/10/19 04:14:26;;;;;;;3.13;2.90;;;;;17.80;100735.00;;;;2087974;28;20224;-57
2021/10/19 04:15:27;;;;;;;3.93;3.63;;;;;17.80;100725.00;;;;2089903;28;20281;-56
2021/10/19 04:16:27;;;;;;;3.50;3.20;;;;;17.80;100733.00;;;;2092571;28;20213;-56
2021/10/19 04:17:27;;;;;;;3.67;3.37;;;;;17.80;100726.00;;;;2091362;28;20583;-56
2021/10/19 04:18:28;;;;;;;3.87;3.57;;;;;17.80;100728.00;;;;2091130;28;20629;-56
2021/10/19 04:19:28;;;;;;;3.73;3.47;;;;;17.80;100718.00;;;;2088253;28;20217;-56
2021/10/19 04:20:28;;;;;;;3.37;3.13;;;;;17.80;100718.00;;;;2088537;28;20247;-56
2021/10/19 04:21:29;;;;;;;3.83;3.53;;;;;17.80;100720.00;;;;2088853;28;20216;-56
2021/10/19 04:22:29;;;;;;;4.00;3.70;;;;;17.80;100721.00;;;;2090696;28;20431;-56
2021/10/19 04:23:29;;;;;;;4.20;3.90;;;;;17.80;100714.00;;;;2096960;28;20212;-55
2021/10/19 04:24:30;;;;;;;3.50;3.27;;;;;17.80;100720.00;;;;2096889;28;20236;-54
2021/10/19 04:25:30;;;;;;;3.33;3.10;;;;;17.80;100719.00;;;;2093318;28;20267;-54
2021/10/19 04:26:30;;;;;;;3.60;3.30;;;;;17.80;100719.00;;;;2088570;28;20303;-54
2021/10/19 04:27:31;;;;;;;3.23;3.03;;;;;17.80;100720.00;;;;2088613;28;20570;-55
2021/10/19 04:28:32;;;;;;;3.53;3.33;;;;;17.80;100719.00;;;;2088564;28;20316;-56
2021/10/19 04:29:33;;;;;;;3.60;3.38;;;;;17.80;100721.00;;;;2088085;28;20229;-55
2021/10/19 04:30:33;;;;;;;3.30;3.00;;;;;17.80;100718.00;;;;2088187;28;20216;-55
2021/10/19 04:31:36;;;;;;;3.80;3.50;;;;;17.80;100720.00;;;;2088175;28;20205;-55
2021/10/19 04:32:37;;;;;;;3.90;3.60;;;;;17.80;100723.00;;;;2088487;28;20216;-54
2021/10/19 04:33:37;;;;;;;3.17;2.97;;;;;17.80;100720.00;;;;2088570;28;20216;-54
2021/10/19 04:34:37;;;;;;;3.67;3.40;;;;;17.80;100723.00;;;;2088489;28;20208;-54
2021/10/19 04:35:38;;;;;;;4.10;3.80;;;;;17.70;100721.00;;;;2088589;28;20216;-54
2021/10/19 04:36:38;;;;;;;3.97;3.67;;;;;17.80;100720.00;;;;2088658;28;20292;-54
2021/10/19 04:37:39;;;;;;;3.70;3.40;;;;;17.80;100715.00;;;;2088363;28;20577;-54
2021/10/19 04:38:39;;;;;;;3.90;3.60;;;;;17.80;100714.00;;;;2090501;28;20582;-54
2021/10/19 04:39:39;;;;;;;3.13;2.93;;;;;17.80;100719.00;;;;2096125;28;20291;-54
2021/10/19 04:40:40;;;;;;;3.60;3.30;;;;;17.80;100715.00;;;;2096755;28;20898;-54
2021/10/19 04:41:44;;;;;;;3.47;3.23;;;;;17.80;100714.00;;;;2095616;28;20243;-54
2021/10/19 04:42:44;;;;;;;3.38;3.17;;;;;17.80;100718.00;;;;2096587;28;20240;-54
2021/10/19 04:43:44;;;;;;;3.50;3.30;;;;;17.80;100715.00;;;;2096237;28;20555;-54
2021/10/19 04:44:48;;;;;;;3.30;3.00;;;;;17.80;100716.00;;;;2096828;28;20204;-54
2021/10/19 04:45:48;;;;;;;3.72;3.42;;;;;17.80;100709.00;;;;2093416;28;20212;-53
2021/10/19 04:46:48;;;;;;;3.93;3.63;;;;;17.80;100721.00;;;;2091777;28;20211;-54
2021/10/19 04:47:49;;;;;;;3.30;3.10;;;;;17.80;100699.00;;;;2091395;28;20234;-55
2021/10/19 04:48:49;;;;;;;3.60;3.37;;;;;17.80;100712.00;;;;2088818;28;20220;-54
2021/10/19 04:49:50;;;;;;;3.83;3.53;;;;;17.80;100714.00;;;;2088235;28;20215;-54
2021/10/19 04:50:50;;;;;;;3.90;3.60;;;;;17.80;100710.00;;;;2088644;28;20205;-55
2021/10/19 04:51:50;;;;;;;3.47;3.27;;;;;17.80;100706.00;;;;2088631;28;20235;-54
2021/10/19 04:52:51;;;;;;;3.30;3.10;;;;;17.80;100698.00;;;;2093767;28;20216;-54
2021/10/19 04:53:51;;;;;;;3.57;3.33;;;;;17.80;100697.00;;;;2096723;28;20583;-54
2021/10/19 04:54:52;;;;;;;3.77;3.47;;;;;17.80;100698.00;;;;2096502;28;20223;-54
2021/10/19 04:55:52;;;;;;;3.03;2.83;;;;;17.80;100694.00;;;;2096764;28;20252;-55
2021/10/19 04:56:53;;;;;;;3.53;3.23;;;;;17.80;100697.00;;;;2096738;28;20212;-54
2021/10/19 04:57:53;;;;;;;4.07;3.67;;;;;17.80;100698.00;;;;2096760;28;20223;-54
2021/10/19 04:58:53;;;;;;;3.33;3.13;;;;;17.80;100697.00;;;;2096308;28;20219;-54